createdAt,value
2019-05-18T00:01:15.776Z,84.41
2019-05-18T00:03:44.288Z,83.78
2019-05-18T00:06:12.941Z,84.54
2019-05-18T00:08:41.658Z,84.87
2019-05-18T00:11:10.289Z,85.77
2019-05-18T00:13:39.023Z,86.21
2019-05-18T00:16:07.749Z,86.65
2019-05-18T00:18:36.371Z,86.97
2019-05-18T00:21:05.137Z,87.00
2019-05-18T00:23:33.664Z,86.79
2019-05-18T00:26:02.398Z,87.13
2019-05-18T00:28:31.056Z,87.57
2019-05-18T00:30:59.674Z,88.15
2019-05-18T00:33:28.258Z,88.33
2019-05-18T00:35:56.993Z,88.54
2019-05-18T00:38:25.604Z,88.55
2019-05-18T00:40:54.121Z,88.37
2019-05-18T00:43:22.677Z,88.30
2019-05-18T00:45:51.304Z,88.72
2019-05-18T00:48:19.940Z,88.90
2019-05-18T00:50:48.563Z,88.73
2019-05-18T00:53:17.180Z,88.82
2019-05-18T00:55:45.797Z,88.73
2019-05-18T00:58:14.348Z,88.88
2019-05-18T01:00:43.107Z,88.66
2019-05-18T01:03:11.921Z,88.66
2019-05-18T01:05:40.552Z,88.36
2019-05-18T01:08:09.085Z,88.45
2019-05-18T01:10:37.667Z,88.31
2019-05-18T01:13:06.300Z,88.26
2019-05-18T01:15:35.004Z,88.32
2019-05-18T01:18:03.656Z,88.89
2019-05-18T01:20:32.323Z,88.38
2019-05-18T01:23:00.936Z,88.34
2019-05-18T01:25:29.852Z,88.43
2019-05-18T01:27:58.561Z,88.34
2019-05-18T01:30:27.475Z,88.01
2019-05-18T01:32:56.014Z,87.87
2019-05-18T01:35:24.650Z,87.82
2019-05-18T01:37:53.173Z,87.93
2019-05-18T01:40:21.889Z,87.79
2019-05-18T01:42:50.423Z,87.79
2019-05-18T01:45:19.129Z,88.00
2019-05-18T01:47:47.754Z,87.89
2019-05-18T01:50:16.487Z,88.04
2019-05-18T01:52:45.112Z,87.92
2019-05-18T01:55:13.758Z,88.24
2019-05-18T01:57:42.402Z,88.24
2019-05-18T02:00:11.326Z,88.22
2019-05-18T02:02:39.875Z,88.52
2019-05-18T02:05:08.826Z,87.81
2019-05-18T02:07:37.450Z,86.87
2019-05-18T02:10:06.273Z,86.89
2019-05-18T02:12:34.911Z,87.51
2019-05-18T02:15:04.367Z,87.09
2019-05-18T02:17:33.156Z,87.77
2019-05-18T02:20:01.898Z,88.34
2019-05-18T02:22:30.533Z,89.36
2019-05-18T02:24:59.150Z,89.71
2019-05-18T02:27:27.813Z,89.74
2019-05-18T02:29:56.455Z,89.57
2019-05-18T02:32:25.073Z,89.71
2019-05-18T02:34:53.599Z,90.35
2019-05-18T02:37:22.118Z,90.29
2019-05-18T02:39:53.849Z,91.23
2019-05-18T02:42:22.627Z,90.39
2019-05-18T02:44:51.426Z,90.66
2019-05-18T02:47:20.136Z,91.72
2019-05-18T02:49:49.244Z,90.50
2019-05-18T02:52:17.992Z,90.37
2019-05-18T02:54:46.608Z,90.50
2019-05-18T02:57:15.160Z,90.48
2019-05-18T02:59:43.657Z,90.61
2019-05-18T03:02:12.286Z,91.06
2019-05-18T03:04:41.031Z,91.39
2019-05-18T03:07:09.755Z,91.27
2019-05-18T03:09:38.492Z,90.45
2019-05-18T03:12:07.126Z,90.86
2019-05-18T03:14:35.728Z,90.85
2019-05-18T03:17:04.671Z,90.86
2019-05-18T03:19:33.590Z,91.07
2019-05-18T03:22:02.417Z,91.21
2019-05-18T03:24:31.114Z,91.23
2019-05-18T03:26:59.653Z,91.53
2019-05-18T03:29:28.173Z,91.67
2019-05-18T03:31:56.803Z,92.28
2019-05-18T03:34:25.489Z,91.82
2019-05-18T03:36:54.209Z,91.67
2019-05-18T03:39:22.936Z,90.88
2019-05-18T03:41:51.473Z,91.22
2019-05-18T03:44:19.987Z,91.37
2019-05-18T03:46:48.547Z,91.76
2019-05-18T03:49:26.871Z,91.53
2019-05-18T03:51:47.745Z,91.30
2019-05-18T03:54:16.267Z,91.15
2019-05-18T03:56:44.839Z,91.64
2019-05-18T03:59:13.345Z,91.01
2019-05-18T04:01:41.977Z,89.70
2019-05-18T04:04:10.549Z,89.81
2019-05-18T04:06:39.068Z,90.18
2019-05-18T04:09:07.596Z,90.39
2019-05-18T04:11:36.276Z,90.46
2019-05-18T04:14:08.106Z,90.73
2019-05-18T04:16:35.201Z,90.92
2019-05-18T04:19:03.753Z,91.01
2019-05-18T04:21:32.262Z,90.72
2019-05-18T04:24:00.792Z,90.52
2019-05-18T04:26:29.318Z,89.67
2019-05-18T04:28:57.943Z,89.40
2019-05-18T04:31:26.663Z,86.45
2019-05-18T04:33:55.297Z,85.61
2019-05-18T04:36:23.803Z,86.29
2019-05-18T04:38:52.329Z,86.16
2019-05-18T04:41:21.130Z,84.91
2019-05-18T04:43:49.828Z,84.77
2019-05-18T04:46:18.334Z,84.28
2019-05-18T04:48:46.892Z,84.51
2019-05-18T04:51:15.520Z,84.74
2019-05-18T04:53:44.145Z,84.73
2019-05-18T04:56:12.662Z,84.91
2019-05-18T04:58:41.297Z,84.30
2019-05-18T05:01:09.819Z,83.93
2019-05-18T05:03:38.359Z,84.04
2019-05-18T05:06:06.883Z,84.66
2019-05-18T05:08:35.397Z,83.58
2019-05-18T05:11:04.054Z,83.01
2019-05-18T05:13:32.742Z,81.77
2019-05-18T05:16:01.261Z,81.06
2019-05-18T05:18:29.958Z,82.04
2019-05-18T05:20:58.467Z,84.18
2019-05-18T05:23:27.129Z,83.79
2019-05-18T05:25:55.683Z,81.57
2019-05-18T05:28:24.204Z,81.20
2019-05-18T05:30:52.718Z,81.75
2019-05-18T05:33:21.263Z,81.66
2019-05-18T05:35:49.766Z,81.50
2019-05-18T05:38:18.291Z,80.85
2019-05-18T05:40:46.950Z,80.89
2019-05-18T05:43:15.476Z,79.78
2019-05-18T05:45:44.001Z,78.83
2019-05-18T05:48:12.850Z,77.13
2019-05-18T05:50:41.590Z,75.89
2019-05-18T05:53:10.139Z,75.14
2019-05-18T05:55:38.932Z,74.44
2019-05-18T05:58:07.505Z,74.62
2019-05-18T06:00:36.024Z,75.10
2019-05-18T06:03:04.691Z,74.50
2019-05-18T06:05:33.229Z,76.07
2019-05-18T06:08:01.763Z,72.61
2019-05-18T06:10:30.399Z,72.31
2019-05-18T06:12:59.025Z,72.49
2019-05-18T06:15:27.668Z,71.06
2019-05-18T06:17:56.363Z,69.99
2019-05-18T06:20:25.022Z,71.77
2019-05-18T06:22:53.885Z,69.62
2019-05-18T06:25:22.440Z,68.82
2019-05-18T06:27:50.962Z,67.62
2019-05-18T06:30:19.717Z,67.16
2019-05-18T06:32:48.321Z,67.33
2019-05-18T06:35:16.961Z,68.20
2019-05-18T06:37:45.503Z,65.21
2019-05-18T06:40:14.272Z,64.72
2019-05-18T06:42:42.922Z,64.48
2019-05-18T06:45:12.716Z,63.36
2019-05-18T06:47:41.283Z,63.96
2019-05-18T06:50:12.201Z,64.19
2019-05-18T06:52:40.651Z,62.42
2019-05-18T06:55:11.206Z,62.02
2019-05-18T06:57:41.324Z,60.61
2019-05-18T07:00:12.088Z,59.99
2019-05-18T07:02:40.909Z,59.22
2019-05-18T07:05:09.672Z,59.53
2019-05-18T07:07:38.201Z,60.13
2019-05-18T07:10:06.965Z,59.43
2019-05-18T07:12:35.489Z,59.05
2019-05-18T07:15:04.990Z,59.65
2019-05-18T07:17:34.702Z,58.48
2019-05-18T07:20:03.660Z,59.55
2019-05-18T07:22:32.283Z,60.09
2019-05-18T07:25:00.915Z,61.18
2019-05-18T07:27:29.480Z,60.37
2019-05-18T07:29:58.033Z,59.74
2019-05-18T07:32:26.885Z,59.01
2019-05-18T07:34:55.592Z,60.98
2019-05-18T07:37:24.281Z,61.48
2019-05-18T07:39:52.924Z,60.10
2019-05-18T07:42:21.657Z,60.76
2019-05-18T07:44:50.302Z,58.46
2019-05-18T07:47:18.837Z,58.62
2019-05-18T07:49:47.460Z,60.32
2019-05-18T07:52:17.371Z,56.64
2019-05-18T07:54:46.329Z,54.91
2019-05-18T07:57:14.889Z,50.89
2019-05-18T07:59:43.607Z,49.18
2019-05-18T08:02:12.154Z,48.28
2019-05-18T08:04:40.798Z,48.28
2019-05-18T08:07:09.560Z,48.53
2019-05-18T08:09:38.250Z,49.13
2019-05-18T08:12:06.802Z,50.64
2019-05-18T08:14:35.514Z,50.64
2019-05-18T08:17:04.220Z,50.99
2019-05-18T08:19:32.848Z,51.76
2019-05-18T08:22:01.585Z,53.30
2019-05-18T08:24:30.272Z,49.92
2019-05-18T08:27:01.980Z,48.46
2019-05-18T08:29:29.422Z,47.67
2019-05-18T08:31:57.980Z,42.83
2019-05-18T08:34:26.549Z,44.38
2019-05-18T08:36:55.219Z,48.29
2019-05-18T08:39:23.726Z,44.68
2019-05-18T08:41:52.317Z,48.51
2019-05-18T08:44:20.812Z,47.56
2019-05-18T08:46:49.343Z,46.38
2019-05-18T08:49:18.093Z,49.51
2019-05-18T08:51:46.659Z,46.09
2019-05-18T08:54:15.194Z,43.30
2019-05-18T08:56:43.764Z,44.07
2019-05-18T08:59:12.261Z,47.07
2019-05-18T09:01:41.197Z,38.82
2019-05-18T09:04:09.678Z,39.46
2019-05-18T09:06:38.357Z,35.50
2019-05-18T09:09:06.961Z,33.53
2019-05-18T09:11:35.561Z,36.95
2019-05-18T09:14:04.239Z,33.70
2019-05-18T09:16:32.953Z,32.48
2019-05-18T09:19:01.580Z,32.93
2019-05-18T09:21:30.071Z,37.96
2019-05-18T09:23:58.975Z,32.29
2019-05-18T09:26:27.547Z,28.89
2019-05-18T09:28:56.118Z,30.42
2019-05-18T09:31:24.877Z,32.83
2019-05-18T09:33:53.476Z,34.30
2019-05-18T09:36:22.111Z,35.04
2019-05-18T09:38:50.784Z,37.85
2019-05-18T09:41:19.315Z,38.16
2019-05-18T09:43:47.975Z,42.27
2019-05-18T09:46:16.624Z,40.06
2019-05-18T09:48:45.157Z,35.97
2019-05-18T09:51:13.758Z,37.23
2019-05-18T09:53:51.284Z,34.57
2019-05-18T09:56:12.885Z,36.54
2019-05-18T09:58:41.597Z,34.81
2019-05-18T10:01:10.393Z,36.76
2019-05-18T10:03:39.017Z,38.01
2019-05-18T10:06:07.817Z,32.26
2019-05-18T10:08:36.347Z,33.65
2019-05-18T10:11:04.957Z,34.92
2019-05-18T10:13:33.903Z,34.79
2019-05-18T10:16:02.529Z,33.35
2019-05-18T10:18:31.096Z,37.33
2019-05-18T10:20:59.842Z,33.77
2019-05-18T10:23:28.414Z,30.92
2019-05-18T10:25:57.079Z,34.46
2019-05-18T10:28:26.140Z,30.93
2019-05-18T10:30:54.775Z,29.90
2019-05-18T10:33:23.288Z,28.59
2019-05-18T10:35:51.804Z,32.25
2019-05-18T10:38:20.363Z,35.71
2019-05-18T10:40:49.082Z,32.26
2019-05-18T10:43:17.832Z,34.73
2019-05-18T10:45:46.389Z,28.94
2019-05-18T10:48:15.067Z,31.60
2019-05-18T10:50:43.681Z,32.81
2019-05-18T10:53:27.488Z,29.70
2019-05-18T10:55:43.411Z,28.54
2019-05-18T10:58:12.013Z,31.97
2019-05-18T11:00:40.684Z,29.44
2019-05-18T11:03:09.481Z,28.06
2019-05-18T11:05:38.028Z,25.65
2019-05-18T11:08:06.893Z,27.78
2019-05-18T11:10:35.502Z,27.97
2019-05-18T11:13:04.329Z,32.75
2019-05-18T11:15:33.088Z,35.54
2019-05-18T11:18:01.737Z,32.39
2019-05-18T11:20:30.339Z,30.37
2019-05-18T11:22:58.932Z,30.61
2019-05-18T11:25:27.653Z,27.67
2019-05-18T11:27:56.400Z,27.17
2019-05-18T11:30:25.235Z,25.84
2019-05-18T11:32:53.987Z,28.68
2019-05-18T11:35:22.708Z,27.92
2019-05-18T11:37:51.474Z,29.40
2019-05-18T11:40:20.209Z,29.24
2019-05-18T11:42:48.849Z,28.46
2019-05-18T11:45:17.905Z,27.67
2019-05-18T11:47:46.606Z,26.03
2019-05-18T11:50:15.632Z,32.06
2019-05-18T11:52:44.437Z,24.66
2019-05-18T11:55:13.760Z,25.82
2019-05-18T11:57:42.386Z,25.86
2019-05-18T12:00:14.353Z,25.43
2019-05-18T12:02:42.982Z,27.09
2019-05-18T12:05:13.203Z,26.78
2019-05-18T12:07:42.086Z,27.41
2019-05-18T12:10:10.820Z,27.26
2019-05-18T12:12:39.471Z,28.30
2019-05-18T12:15:10.004Z,28.65
2019-05-18T12:17:38.624Z,27.96
2019-05-18T12:20:07.714Z,27.17
2019-05-18T12:22:36.569Z,23.51
2019-05-18T12:25:05.620Z,25.17
2019-05-18T12:27:34.196Z,24.03
2019-05-18T12:30:03.593Z,28.37
2019-05-18T12:32:32.155Z,29.55
2019-05-18T12:35:00.771Z,28.53
2019-05-18T12:37:29.454Z,27.79
2019-05-18T12:39:58.116Z,30.68
2019-05-18T12:42:26.751Z,28.86
2019-05-18T12:44:55.276Z,31.31
2019-05-18T12:47:23.796Z,33.00
2019-05-18T12:49:52.368Z,31.21
2019-05-18T12:52:20.983Z,27.70
2019-05-18T12:54:50.415Z,28.33
2019-05-18T12:57:19.391Z,28.48
2019-05-18T12:59:48.125Z,27.10
2019-05-18T13:02:16.883Z,27.09
2019-05-18T13:04:46.355Z,26.87
2019-05-18T13:07:14.869Z,26.12
2019-05-18T13:09:43.471Z,26.50
2019-05-18T13:12:12.138Z,28.92
2019-05-18T13:14:40.777Z,29.02
2019-05-18T13:17:09.485Z,27.01
2019-05-18T13:19:38.253Z,28.92
2019-05-18T13:22:06.973Z,26.35
2019-05-18T13:24:44.959Z,23.10
2019-05-18T13:27:06.412Z,22.65
2019-05-18T13:29:35.090Z,21.03
2019-05-18T13:32:03.815Z,20.05
2019-05-18T13:34:32.542Z,22.61
2019-05-18T13:37:01.415Z,18.62
2019-05-18T13:39:29.998Z,17.70
2019-05-18T13:41:58.538Z,16.92
2019-05-18T13:44:27.163Z,21.21
2019-05-18T13:46:55.706Z,22.59
2019-05-18T13:49:24.261Z,24.87
2019-05-18T13:51:52.897Z,25.67
2019-05-18T13:54:21.610Z,27.84
2019-05-18T13:56:50.688Z,30.04
2019-05-18T13:59:19.322Z,29.55
2019-05-18T14:01:48.075Z,29.02
2019-05-18T14:04:16.645Z,28.87
2019-05-18T14:06:45.633Z,29.76
2019-05-18T14:09:14.275Z,29.03
2019-05-18T14:11:42.840Z,30.18
2019-05-18T14:14:11.525Z,31.57
2019-05-18T14:16:40.049Z,32.45
2019-05-18T14:19:08.707Z,32.89
2019-05-18T14:21:37.550Z,31.31
2019-05-18T14:24:06.429Z,32.74
2019-05-18T14:26:35.164Z,32.98
2019-05-18T14:29:04.084Z,33.18
2019-05-18T14:31:32.759Z,34.10
2019-05-18T14:34:01.738Z,33.38
2019-05-18T14:36:30.316Z,33.96
2019-05-18T14:38:58.872Z,34.95
2019-05-18T14:41:27.407Z,34.90
2019-05-18T14:43:55.930Z,34.09
2019-05-18T14:46:24.536Z,34.44
2019-05-18T14:48:53.217Z,36.52
2019-05-18T14:51:22.060Z,35.83
2019-05-18T14:53:50.683Z,36.70
2019-05-18T14:56:19.363Z,35.74
2019-05-18T14:58:48.012Z,35.49
2019-05-18T15:01:16.598Z,36.49
2019-05-18T15:03:45.298Z,36.23
2019-05-18T15:06:14.031Z,35.86
2019-05-18T15:08:42.536Z,34.93
2019-05-18T15:11:11.376Z,35.10
2019-05-18T15:13:39.886Z,34.69
2019-05-18T15:16:08.520Z,35.45
2019-05-18T15:18:37.087Z,34.74
2019-05-18T15:21:05.772Z,36.02
2019-05-18T15:23:34.331Z,35.82
2019-05-18T15:26:03.084Z,35.74
2019-05-18T15:28:31.807Z,36.26
2019-05-18T15:31:00.337Z,34.89
2019-05-18T15:33:29.083Z,34.20
2019-05-18T15:35:57.710Z,33.91
2019-05-18T15:38:26.217Z,34.87
2019-05-18T15:40:54.856Z,38.93
2019-05-18T15:43:23.459Z,41.55
2019-05-18T15:45:52.135Z,43.22
2019-05-18T15:48:20.920Z,44.88
2019-05-18T15:50:49.609Z,47.67
2019-05-18T15:53:18.147Z,49.43
2019-05-18T15:55:46.733Z,51.71
2019-05-18T15:58:15.461Z,52.43
2019-05-18T16:00:44.114Z,49.84
2019-05-18T16:03:12.889Z,49.78
2019-05-18T16:05:41.532Z,49.87
2019-05-18T16:08:10.297Z,50.75
2019-05-18T16:10:39.099Z,51.06
2019-05-18T16:13:07.730Z,52.63
2019-05-18T16:15:36.306Z,53.44
2019-05-18T16:18:04.964Z,58.53
2019-05-18T16:20:33.719Z,62.07
2019-05-18T16:23:02.549Z,64.52
2019-05-18T16:25:31.284Z,66.60
2019-05-18T16:28:00.076Z,69.00
2019-05-18T16:30:28.842Z,70.22
2019-05-18T16:32:57.943Z,72.17
2019-05-18T16:35:26.474Z,72.84
2019-05-18T16:37:55.018Z,74.26
2019-05-18T16:40:23.748Z,75.94
2019-05-18T16:42:52.455Z,78.30
2019-05-18T16:45:21.155Z,79.16
2019-05-18T16:47:49.834Z,77.82
2019-05-18T16:50:19.331Z,79.29
2019-05-18T16:52:48.080Z,80.77
2019-05-18T16:55:17.087Z,81.23
2019-05-18T16:57:45.886Z,83.87
2019-05-18T17:00:16.435Z,83.72
2019-05-18T17:02:45.478Z,85.20
2019-05-18T17:05:14.927Z,86.62
2019-05-18T17:07:43.555Z,86.03
2019-05-18T17:10:13.713Z,87.10
2019-05-18T17:12:42.335Z,87.15
2019-05-18T17:15:11.068Z,86.02
2019-05-18T17:17:40.948Z,86.01
2019-05-18T17:20:09.784Z,86.14
2019-05-18T17:22:38.316Z,86.89
2019-05-18T17:25:07.451Z,87.44
2019-05-18T17:27:35.990Z,87.04
2019-05-18T17:30:04.894Z,86.41
2019-05-18T17:32:33.524Z,85.74
2019-05-18T17:35:02.304Z,86.90
2019-05-18T17:37:30.918Z,88.58
2019-05-18T17:39:59.462Z,88.53
2019-05-18T17:42:28.181Z,89.09
2019-05-18T17:44:56.828Z,90.28
2019-05-18T17:47:25.390Z,90.21
2019-05-18T17:49:53.899Z,90.99
2019-05-18T17:52:22.433Z,91.19
2019-05-18T17:54:51.087Z,90.62
2019-05-18T17:57:19.604Z,91.13
2019-05-18T17:59:49.625Z,90.85
2019-05-18T18:02:18.391Z,92.01
2019-05-18T18:04:46.924Z,91.58
2019-05-18T18:07:15.543Z,90.65
2019-05-18T18:09:44.366Z,90.69
2019-05-18T18:12:12.887Z,90.71
2019-05-18T18:14:41.581Z,90.10
2019-05-18T18:17:10.223Z,89.53
2019-05-18T18:19:38.823Z,89.63
2019-05-18T18:22:07.630Z,88.35
2019-05-18T18:24:36.388Z,88.11
2019-05-18T18:27:05.044Z,88.91
2019-05-18T18:29:33.739Z,89.50
2019-05-18T18:32:02.648Z,89.03
2019-05-18T18:34:31.251Z,88.77
2019-05-18T18:37:00.268Z,88.89
2019-05-18T18:39:29.027Z,89.19
2019-05-18T18:41:57.567Z,89.91
2019-05-18T18:44:26.255Z,89.98
2019-05-18T18:46:54.948Z,89.41
2019-05-18T18:49:23.559Z,88.71
2019-05-18T18:51:52.198Z,88.99
2019-05-18T18:54:20.892Z,87.16
2019-05-18T18:56:49.642Z,87.97
2019-05-18T18:59:18.167Z,87.81
2019-05-18T19:01:47.114Z,87.29
2019-05-18T19:04:15.636Z,87.76
2019-05-18T19:06:44.178Z,88.90
2019-05-18T19:09:12.828Z,88.47
2019-05-18T19:11:41.360Z,86.67
2019-05-18T19:14:09.880Z,86.55
2019-05-18T19:16:38.605Z,85.36
2019-05-18T19:19:07.456Z,85.63
2019-05-18T19:21:36.108Z,84.47
2019-05-18T19:24:04.761Z,83.95
2019-05-18T19:26:33.416Z,82.61
2019-05-18T19:29:02.163Z,82.63
2019-05-18T19:31:30.866Z,82.04
2019-05-18T19:33:59.465Z,81.91
2019-05-18T19:36:28.012Z,81.18
2019-05-18T19:38:56.725Z,80.47
2019-05-18T19:41:25.509Z,80.25
2019-05-18T19:43:54.300Z,78.98
2019-05-18T19:46:23.463Z,78.55
2019-05-18T19:48:52.023Z,78.28
2019-05-18T19:51:20.655Z,77.90
2019-05-18T19:53:49.208Z,77.59
2019-05-18T19:56:17.992Z,77.27
2019-05-18T19:58:46.588Z,76.23
2019-05-18T20:01:15.281Z,76.09
2019-05-18T20:03:43.923Z,75.41
2019-05-18T20:06:12.618Z,75.36
2019-05-18T20:08:41.356Z,75.60
2019-05-18T20:11:09.900Z,76.07
2019-05-18T20:13:38.431Z,75.86
2019-05-18T20:16:07.092Z,76.75
2019-05-18T20:18:35.613Z,76.20
2019-05-18T20:21:04.756Z,75.98
2019-05-18T20:23:33.320Z,76.00
2019-05-18T20:26:01.983Z,77.24
2019-05-18T20:28:30.522Z,76.81
2019-05-18T20:30:59.393Z,77.51
2019-05-18T20:33:27.986Z,77.41
2019-05-18T20:35:56.653Z,77.87
2019-05-18T20:38:25.295Z,77.26
2019-05-18T20:40:53.953Z,78.48
2019-05-18T20:43:22.577Z,77.80
2019-05-18T20:45:51.829Z,77.53
2019-05-18T20:48:20.460Z,77.92
2019-05-18T20:50:49.103Z,78.19
2019-05-18T20:53:17.776Z,77.24
2019-05-18T20:55:46.462Z,76.60
2019-05-18T20:58:15.024Z,76.59
2019-05-18T21:00:43.680Z,76.71
2019-05-18T21:03:12.403Z,76.81
2019-05-18T21:05:40.936Z,76.87
2019-05-18T21:08:12.039Z,77.49
2019-05-18T21:10:40.621Z,78.88
2019-05-18T21:13:09.172Z,78.93
2019-05-18T21:15:37.724Z,79.77
2019-05-18T21:18:06.391Z,79.37
2019-05-18T21:20:34.961Z,80.20
2019-05-18T21:23:03.767Z,80.35
2019-05-18T21:25:32.398Z,81.08
2019-05-18T21:28:00.926Z,81.71
2019-05-18T21:30:29.469Z,81.51
2019-05-18T21:32:58.092Z,81.99
2019-05-18T21:35:26.602Z,82.79
2019-05-18T21:37:55.363Z,84.11
2019-05-18T21:40:26.178Z,84.52
2019-05-18T21:42:54.432Z,85.05
2019-05-18T21:45:22.942Z,85.59
2019-05-18T21:47:51.470Z,85.79
2019-05-18T21:50:20.117Z,85.39
2019-05-18T21:52:48.813Z,85.28
2019-05-18T21:55:17.338Z,86.15
2019-05-18T21:57:45.884Z,86.74
2019-05-18T22:00:14.832Z,86.17
2019-05-18T22:02:43.465Z,86.17
2019-05-18T22:05:12.207Z,86.34
2019-05-18T22:07:40.859Z,85.17
2019-05-18T22:10:24.505Z,84.99
2019-05-18T22:12:40.396Z,85.63
2019-05-18T22:15:09.342Z,85.87
2019-05-18T22:17:57.726Z,87.37
2019-05-18T22:20:26.544Z,86.89
2019-05-18T22:22:55.264Z,86.65
2019-05-18T22:25:23.886Z,86.45
2019-05-18T22:27:52.551Z,87.11
2019-05-18T22:30:21.182Z,87.92
2019-05-18T22:32:49.880Z,89.10
2019-05-18T22:35:18.564Z,88.78
2019-05-18T22:37:47.189Z,88.16
2019-05-18T22:40:15.905Z,88.21
2019-05-18T22:42:44.685Z,88.63
2019-05-18T22:45:13.375Z,88.91
2019-05-18T22:47:41.908Z,88.96
2019-05-18T22:50:11.963Z,89.34
2019-05-18T22:52:40.486Z,88.95
2019-05-18T22:55:09.231Z,89.28
2019-05-18T22:57:37.796Z,89.55
2019-05-18T23:00:07.521Z,89.71
2019-05-18T23:02:36.257Z,89.91
2019-05-18T23:05:05.101Z,89.55
2019-05-18T23:07:33.651Z,89.54
2019-05-18T23:10:02.498Z,89.50
2019-05-18T23:12:31.145Z,90.25
2019-05-18T23:14:59.720Z,90.42
2019-05-18T23:17:28.283Z,90.70
2019-05-18T23:19:56.996Z,90.25
2019-05-18T23:22:25.464Z,90.42
2019-05-18T23:24:54.224Z,90.78
2019-05-18T23:27:22.811Z,90.99
2019-05-18T23:29:51.419Z,90.89
2019-05-18T23:32:19.948Z,90.99
2019-05-18T23:34:48.584Z,90.78
2019-05-18T23:37:17.137Z,90.54
2019-05-18T23:39:45.665Z,90.12
2019-05-18T23:42:14.226Z,90.42
2019-05-18T23:44:42.746Z,90.37
2019-05-18T23:47:11.368Z,89.69
2019-05-18T23:49:40.011Z,88.82
2019-05-18T23:52:08.648Z,88.85
2019-05-18T23:54:37.168Z,88.60
2019-05-18T23:57:05.717Z,88.57
2019-05-18T23:59:34.228Z,88.40
